createdAt,value
2022-09-03T00:00:35.871Z,94764.69
2022-09-03T00:02:13.314Z,94754.41
2022-09-03T00:03:22.156Z,94761.91
2022-09-03T00:04:37.204Z,94776.94
2022-09-03T00:06:07.771Z,94759.72
2022-09-03T00:07:17.314Z,94782.81
2022-09-03T00:08:50.890Z,94761.31
2022-09-03T00:09:56.162Z,94705.81
2022-09-03T00:11:24.093Z,94717.91
2022-09-03T00:12:28.958Z,94739.31
2022-09-03T00:13:42.336Z,94785.75
2022-09-03T00:14:41.725Z,94769.28
2022-09-03T00:15:40.915Z,94772.72
2022-09-03T00:16:47.210Z,94762.63
2022-09-03T00:18:11.031Z,94778.75
2022-09-03T00:19:08.038Z,94783.03
2022-09-03T00:20:27.002Z,94763.84
2022-09-03T00:21:37.413Z,94774.25
2022-09-03T00:22:41.667Z,94761.53
2022-09-03T00:23:42.380Z,94678.53
2022-09-03T00:24:42.577Z,94756.41
2022-09-03T00:25:56.205Z,94751.00
2022-09-03T00:27:00.368Z,94747.47
2022-09-03T00:28:01.652Z,94763.25
2022-09-03T00:29:09.384Z,94735.09
2022-09-03T00:30:17.036Z,94677.38
2022-09-03T00:31:26.482Z,94724.03
2022-09-03T00:32:48.023Z,94777.97
2022-09-03T00:33:48.447Z,94753.66
2022-09-03T00:35:02.707Z,94771.09
2022-09-03T00:36:02.477Z,94750.72
2022-09-03T00:36:59.521Z,94531.19
2022-09-03T00:37:57.671Z,94619.22
2022-09-03T00:38:54.407Z,94694.81
2022-09-03T00:39:51.315Z,94756.16
2022-09-03T00:40:56.339Z,94743.97
2022-09-03T00:41:59.498Z,94744.50
2022-09-03T00:43:31.660Z,94633.06
2022-09-03T00:44:50.090Z,94743.69
2022-09-03T00:46:06.140Z,94623.97
2022-09-03T00:47:15.730Z,94761.81
2022-09-03T00:48:28.565Z,94784.69
2022-09-03T00:49:45.476Z,94746.66
2022-09-03T00:51:02.068Z,94756.97
2022-09-03T00:52:19.740Z,94769.13
2022-09-03T00:53:44.750Z,94644.31
2022-09-03T00:55:25.947Z,94756.84
2022-09-03T00:56:43.973Z,94757.03
2022-09-03T00:58:14.039Z,94753.19
2022-09-03T00:59:27.214Z,94757.91
2022-09-03T01:00:24.218Z,94761.16
2022-09-03T01:01:26.482Z,94772.84
2022-09-03T01:02:56.811Z,94753.84
2022-09-03T01:04:06.600Z,94750.59
2022-09-03T01:05:35.764Z,94760.56
2022-09-03T01:06:50.042Z,94749.34
2022-09-03T01:08:39.175Z,94750.19
2022-09-03T01:10:03.823Z,94748.97
2022-09-03T01:11:12.258Z,94742.25
2022-09-03T01:13:07.003Z,94765.97
2022-09-03T01:14:21.921Z,94728.88
2022-09-03T01:15:30.637Z,94746.78
2022-09-03T01:16:45.644Z,94745.97
2022-09-03T01:17:51.450Z,94746.50
2022-09-03T01:19:09.498Z,94746.38
2022-09-03T01:20:08.970Z,94750.44
2022-09-03T01:21:29.286Z,94755.00
2022-09-03T01:22:41.589Z,94755.75
2022-09-03T01:23:59.772Z,94754.72
2022-09-03T01:25:18.877Z,94768.34
2022-09-03T01:26:24.830Z,94765.06
2022-09-03T01:27:30.999Z,94764.78
2022-09-03T01:28:46.602Z,94766.38
2022-09-03T01:29:55.625Z,94756.19
2022-09-03T01:31:11.495Z,94771.34
2022-09-03T01:32:29.582Z,94664.81
2022-09-03T01:33:44.293Z,94741.13
2022-09-03T01:35:12.414Z,94807.53
2022-09-03T01:36:24.794Z,94767.97
2022-09-03T01:37:49.383Z,94787.34
2022-09-03T01:39:06.391Z,94788.13
2022-09-03T01:40:18.834Z,94688.59
2022-09-03T01:41:46.215Z,94786.88
2022-09-03T01:42:42.883Z,94791.34
2022-09-03T01:44:04.228Z,94798.25
2022-09-03T01:45:35.883Z,94809.00
2022-09-03T01:46:41.586Z,94799.97
2022-09-03T01:48:02.775Z,94791.16
2022-09-03T01:49:11.918Z,94815.38
2022-09-03T01:50:40.222Z,94774.53
2022-09-03T01:51:37.315Z,94738.66
2022-09-03T01:52:50.671Z,94816.88
2022-09-03T01:54:20.684Z,94775.94
2022-09-03T01:55:53.480Z,94775.75
2022-09-03T01:57:02.273Z,94770.81
2022-09-03T01:58:02.705Z,94773.59
2022-09-03T01:59:11.913Z,94782.75
2022-09-03T02:00:16.036Z,94771.88
2022-09-03T02:01:46.790Z,94784.00
2022-09-03T02:02:48.101Z,94763.75
2022-09-03T02:03:45.966Z,94801.63
2022-09-03T02:04:43.496Z,94737.84
2022-09-03T02:05:43.473Z,94787.34
2022-09-03T02:06:40.462Z,94718.63
2022-09-03T02:07:43.139Z,94746.31
2022-09-03T02:08:40.246Z,94785.03
2022-09-03T02:09:37.031Z,94780.00
2022-09-03T02:10:53.544Z,94769.06
2022-09-03T02:11:59.661Z,94791.50
2022-09-03T02:13:10.190Z,94756.84
2022-09-03T02:14:07.323Z,94790.91
2022-09-03T02:15:13.356Z,94809.47
2022-09-03T02:16:35.894Z,94780.53
2022-09-03T02:17:35.026Z,94804.31
2022-09-03T02:18:41.407Z,94797.25
2022-09-03T02:19:39.610Z,94756.75
2022-09-03T02:20:38.747Z,94790.91
2022-09-03T02:21:39.222Z,94773.56
2022-09-03T02:22:35.966Z,94791.84
2022-09-03T02:23:33.226Z,94774.63
2022-09-03T02:24:30.365Z,94791.41
2022-09-03T02:25:33.881Z,94767.22
2022-09-03T02:26:30.928Z,94756.75
2022-09-03T02:27:27.976Z,94796.19
2022-09-03T02:28:27.497Z,94793.19
2022-09-03T02:29:25.281Z,94795.25
2022-09-03T02:30:23.930Z,94797.78
2022-09-03T02:31:20.905Z,94786.09
2022-09-03T02:32:17.674Z,94767.63
2022-09-03T02:33:15.862Z,94811.66
2022-09-03T02:34:12.566Z,94788.59
2022-09-03T02:35:09.859Z,94799.38
2022-09-03T02:36:10.255Z,94846.59
2022-09-03T02:37:18.700Z,94761.94
2022-09-03T02:38:22.352Z,94798.50
2022-09-03T02:39:19.309Z,94674.59
2022-09-03T02:40:17.183Z,94803.09
2022-09-03T02:41:15.456Z,94802.41
2022-09-03T02:42:14.077Z,94801.88
2022-09-03T02:43:41.031Z,94806.03
2022-09-03T02:44:44.954Z,94748.97
2022-09-03T02:45:48.029Z,94797.34
2022-09-03T02:46:57.013Z,94806.34
2022-09-03T02:47:58.840Z,94811.84
2022-09-03T02:48:56.211Z,94789.19
2022-09-03T02:49:52.942Z,94764.22
2022-09-03T02:50:49.781Z,94792.81
2022-09-03T02:51:46.583Z,94805.16
2022-09-03T02:52:43.402Z,94814.75
2022-09-03T02:53:40.341Z,94813.03
2022-09-03T02:54:39.918Z,94775.25
2022-09-03T02:55:36.744Z,94805.13
2022-09-03T02:56:33.831Z,94813.84
2022-09-03T02:57:30.765Z,94803.59
2022-09-03T02:58:29.311Z,94760.97
2022-09-03T02:59:28.355Z,94806.66
2022-09-03T03:00:25.907Z,94804.06
2022-09-03T03:01:24.082Z,94764.72
2022-09-03T03:02:21.117Z,94776.53
2022-09-03T03:03:18.329Z,94821.06
2022-09-03T03:04:15.634Z,94796.31
2022-09-03T03:05:24.805Z,94821.25
2022-09-03T03:06:22.247Z,94779.44
2022-09-03T03:07:18.973Z,94814.81
2022-09-03T03:08:17.786Z,94779.66
2022-09-03T03:09:14.550Z,94812.56
2022-09-03T03:10:12.634Z,94812.03
2022-09-03T03:11:09.514Z,94816.34
2022-09-03T03:12:07.264Z,94759.78
2022-09-03T03:13:04.043Z,94799.91
2022-09-03T03:14:00.780Z,94752.34
2022-09-03T03:14:57.617Z,94808.84
2022-09-03T03:16:03.336Z,94789.66
2022-09-03T03:17:00.187Z,94790.72
2022-09-03T03:17:57.435Z,94779.53
2022-09-03T03:18:56.663Z,94770.72
2022-09-03T03:19:53.449Z,94806.66
2022-09-03T03:20:50.757Z,94811.53
2022-09-03T03:21:47.543Z,94790.31
2022-09-03T03:22:44.267Z,94725.22
2022-09-03T03:23:40.977Z,94793.84
2022-09-03T03:24:38.126Z,94781.75
2022-09-03T03:25:37.715Z,94732.16
2022-09-03T03:26:34.821Z,94744.38
2022-09-03T03:27:31.621Z,94817.41
2022-09-03T03:28:28.377Z,94794.84
2022-09-03T03:29:25.345Z,94787.94
2022-09-03T03:30:22.055Z,94777.72
2022-09-03T03:31:22.236Z,94801.75
2022-09-03T03:32:19.094Z,94798.88
2022-09-03T03:33:15.930Z,94805.00
2022-09-03T03:34:12.650Z,94821.47
2022-09-03T03:35:11.860Z,94810.19
2022-09-03T03:36:15.066Z,94807.47
2022-09-03T03:37:12.024Z,94769.28
2022-09-03T03:38:08.784Z,94769.69
2022-09-03T03:39:05.600Z,94808.78
2022-09-03T03:40:03.565Z,94791.50
2022-09-03T03:41:00.552Z,94591.19
2022-09-03T03:41:57.297Z,94805.06
2022-09-03T03:42:55.137Z,94742.66
2022-09-03T03:43:57.237Z,94804.00
2022-09-03T03:44:56.586Z,94805.16
2022-09-03T03:45:59.563Z,94798.63
2022-09-03T03:46:56.279Z,94804.09
2022-09-03T03:47:58.126Z,94807.63
2022-09-03T03:48:55.332Z,94790.78
2022-09-03T03:49:52.046Z,94795.63
2022-09-03T03:50:49.178Z,94744.41
2022-09-03T03:51:45.915Z,94789.88
2022-09-03T03:52:43.728Z,94801.94
2022-09-03T03:53:40.641Z,94775.19
2022-09-03T03:54:37.438Z,94808.88
2022-09-03T03:55:35.156Z,94771.47
2022-09-03T03:56:33.240Z,94771.47
2022-09-03T03:57:31.958Z,94797.56
2022-09-03T03:58:29.950Z,94794.63
2022-09-03T03:59:26.654Z,94760.78
2022-09-03T04:00:24.728Z,94824.53
2022-09-03T04:01:24.879Z,94807.44
2022-09-03T04:02:21.741Z,94818.66
2022-09-03T04:03:19.482Z,94766.16
2022-09-03T04:04:17.150Z,94794.84
2022-09-03T04:05:13.979Z,94810.38
2022-09-03T04:06:13.941Z,94785.88
2022-09-03T04:07:10.742Z,94728.16
2022-09-03T04:08:07.837Z,94821.06
2022-09-03T04:09:04.626Z,94787.75
2022-09-03T04:10:01.365Z,94810.97
2022-09-03T04:11:02.992Z,94753.75
2022-09-03T04:12:00.018Z,94792.78
2022-09-03T04:12:56.740Z,94792.81
2022-09-03T04:13:54.155Z,94769.81
2022-09-03T04:14:50.894Z,94806.72
2022-09-03T04:15:47.653Z,94804.06
2022-09-03T04:16:46.905Z,94808.78
2022-09-03T04:17:44.191Z,94809.13
2022-09-03T04:18:41.896Z,94804.25
2022-09-03T04:19:38.629Z,94801.94
2022-09-03T04:20:39.047Z,94803.28
2022-09-03T04:21:36.793Z,94758.72
2022-09-03T04:22:33.899Z,94815.88
2022-09-03T04:23:35.568Z,94807.81
2022-09-03T04:24:32.456Z,94802.03
2022-09-03T04:25:29.279Z,94780.38
2022-09-03T04:26:31.566Z,94815.81
2022-09-03T04:27:28.461Z,94804.44
2022-09-03T04:28:25.676Z,94771.34
2022-09-03T04:29:22.741Z,94842.50
2022-09-03T04:30:20.469Z,94793.38
2022-09-03T04:31:20.334Z,94822.19
2022-09-03T04:32:35.744Z,94839.31
2022-09-03T04:33:34.086Z,94793.38
2022-09-03T04:34:30.798Z,94780.13
2022-09-03T04:35:30.060Z,94787.34
2022-09-03T04:36:29.126Z,94826.31
2022-09-03T04:37:25.889Z,94832.09
2022-09-03T04:38:24.367Z,94814.50
2022-09-03T04:39:21.117Z,94840.69
2022-09-03T04:40:17.967Z,94839.75
2022-09-03T04:41:19.506Z,94831.34
2022-09-03T04:42:16.227Z,94847.63
2022-09-03T04:43:13.005Z,94742.84
2022-09-03T04:44:09.819Z,94833.34
2022-09-03T04:45:07.109Z,94841.72
2022-09-03T04:46:06.786Z,94848.56
2022-09-03T04:47:03.857Z,94820.09
2022-09-03T04:48:04.990Z,94845.53
2022-09-03T04:49:04.521Z,94840.72
2022-09-03T04:50:01.759Z,94856.66
2022-09-03T04:51:07.949Z,94858.34
2022-09-03T04:52:04.715Z,94859.75
2022-09-03T04:53:07.772Z,94797.97
2022-09-03T04:54:04.967Z,94829.56
2022-09-03T04:55:02.880Z,94719.97
2022-09-03T04:55:59.696Z,94871.25
2022-09-03T04:56:56.586Z,94835.72
2022-09-03T04:57:53.485Z,94877.22
2022-09-03T04:58:56.766Z,94856.75
2022-09-03T04:59:53.496Z,94878.53
2022-09-03T05:00:50.414Z,94836.03
2022-09-03T05:01:47.218Z,94871.50
2022-09-03T05:02:49.302Z,94872.66
2022-09-03T05:03:47.002Z,94832.72
2022-09-03T05:04:43.821Z,94857.72
2022-09-03T05:05:40.605Z,94861.75
2022-09-03T05:06:37.492Z,94870.00
2022-09-03T05:07:38.680Z,94854.38
2022-09-03T05:08:37.312Z,94877.72
2022-09-03T05:09:34.555Z,94811.88
2022-09-03T05:10:31.835Z,94883.84
2022-09-03T05:11:29.768Z,94880.72
2022-09-03T05:12:26.493Z,94804.78
2022-09-03T05:13:23.209Z,94882.25
2022-09-03T05:14:19.893Z,94815.88
2022-09-03T05:15:16.992Z,94887.03
2022-09-03T05:16:13.809Z,94706.28
2022-09-03T05:17:10.624Z,94869.38
2022-09-03T05:18:07.393Z,94864.94
2022-09-03T05:19:06.499Z,94848.22
2022-09-03T05:20:03.568Z,94877.16
2022-09-03T05:21:03.935Z,94883.44
2022-09-03T05:22:00.657Z,94883.44
2022-09-03T05:22:57.564Z,94813.84
2022-09-03T05:23:54.973Z,94868.56
2022-09-03T05:24:51.797Z,94877.06
2022-09-03T05:26:00.777Z,94861.88
2022-09-03T05:26:57.532Z,94716.75
2022-09-03T05:27:54.359Z,94865.69
2022-09-03T05:28:55.423Z,94881.00
2022-09-03T05:29:52.210Z,94881.59
2022-09-03T05:31:01.669Z,94854.19
2022-09-03T05:31:59.121Z,94876.56
2022-09-03T05:32:57.200Z,94868.09
2022-09-03T05:33:58.542Z,94857.97
2022-09-03T05:34:55.605Z,94884.16
2022-09-03T05:35:53.731Z,94882.78
2022-09-03T05:36:50.578Z,94874.69
2022-09-03T05:37:48.054Z,94879.25
2022-09-03T05:38:47.702Z,94870.13
2022-09-03T05:39:44.464Z,94763.75
2022-09-03T05:40:41.647Z,94867.69
2022-09-03T05:41:38.406Z,94883.84
2022-09-03T05:42:37.994Z,94888.22
2022-09-03T05:43:35.484Z,94882.50
2022-09-03T05:44:32.310Z,94878.94
2022-09-03T05:45:29.775Z,94853.63
2022-09-03T05:46:32.219Z,94887.47
2022-09-03T05:47:29.262Z,94886.69
2022-09-03T05:48:26.681Z,94888.75
2022-09-03T05:49:23.509Z,94878.97
2022-09-03T05:50:20.248Z,94895.25
2022-09-03T05:51:18.583Z,94893.84
2022-09-03T05:52:17.536Z,94752.59
2022-09-03T05:53:14.441Z,94863.00
2022-09-03T05:54:11.239Z,94892.94
2022-09-03T05:55:11.679Z,94896.13
2022-09-03T05:56:13.304Z,94863.94
2022-09-03T05:57:10.069Z,94904.72
2022-09-03T05:58:07.400Z,94879.13
2022-09-03T05:59:08.120Z,94892.16
2022-09-03T06:00:05.305Z,94900.16
2022-09-03T06:01:13.152Z,94880.09
2022-09-03T06:02:10.047Z,94812.97
2022-09-03T06:03:09.080Z,94891.34
2022-09-03T06:04:11.325Z,94893.50
2022-09-03T06:05:08.353Z,94875.16
2022-09-03T06:06:05.483Z,94893.84
2022-09-03T06:07:02.221Z,94909.06
2022-09-03T06:07:58.909Z,94897.84
2022-09-03T06:09:02.623Z,94872.63
2022-09-03T06:09:59.412Z,94897.03
2022-09-03T06:11:00.751Z,94870.88
2022-09-03T06:11:57.525Z,94888.53
2022-09-03T06:13:02.736Z,94835.91
2022-09-03T06:14:02.760Z,94902.72
2022-09-03T06:14:59.506Z,94844.69
2022-09-03T06:15:58.115Z,94857.13
2022-09-03T06:16:56.995Z,94740.28
2022-09-03T06:17:53.756Z,94903.53
2022-09-03T06:18:51.279Z,94848.53
2022-09-03T06:19:49.453Z,94870.16
2022-09-03T06:20:54.625Z,94513.22
2022-09-03T06:21:51.439Z,94790.88
2022-09-03T06:22:53.052Z,94894.50
2022-09-03T06:23:59.706Z,94774.91
2022-09-03T06:24:57.117Z,94883.81
2022-09-03T06:26:11.446Z,94905.75
2022-09-03T06:27:11.156Z,94893.47
2022-09-03T06:28:08.968Z,94799.03
2022-09-03T06:29:06.190Z,94891.84
2022-09-03T06:30:03.230Z,94905.13
2022-09-03T06:31:02.305Z,94853.41
2022-09-03T06:32:00.107Z,94907.00
2022-09-03T06:32:59.393Z,94907.72
2022-09-03T06:33:59.616Z,94914.50
2022-09-03T06:34:57.566Z,94913.22
2022-09-03T06:35:59.383Z,94901.72
2022-09-03T06:36:56.090Z,94920.38
2022-09-03T06:37:53.181Z,94906.75
2022-09-03T06:38:53.944Z,94914.50
2022-09-03T06:39:51.825Z,94903.09
2022-09-03T06:41:02.156Z,94825.09
2022-09-03T06:41:58.862Z,94904.16
2022-09-03T06:43:01.911Z,94901.78
2022-09-03T06:44:04.338Z,94904.34
2022-09-03T06:45:02.382Z,94870.09
2022-09-03T06:46:01.616Z,94843.66
2022-09-03T06:47:01.435Z,94851.50
2022-09-03T06:47:58.250Z,94876.09
2022-09-03T06:48:55.540Z,94913.28
2022-09-03T06:49:52.275Z,94877.00
2022-09-03T06:50:57.109Z,94878.19
2022-09-03T06:51:54.936Z,94902.44
2022-09-03T06:52:55.112Z,94878.81
2022-09-03T06:53:54.638Z,94866.56
2022-09-03T06:54:51.343Z,94846.78
2022-09-03T06:56:02.573Z,94907.88
2022-09-03T06:56:59.291Z,94912.09
2022-09-03T06:57:57.531Z,94893.47
2022-09-03T06:58:57.561Z,94858.69
2022-09-03T06:59:55.437Z,94808.66
2022-09-03T07:01:00.831Z,94887.75
2022-09-03T07:02:00.741Z,94877.69
2022-09-03T07:02:59.140Z,94927.44
2022-09-03T07:03:58.431Z,94890.97
2022-09-03T07:04:55.181Z,94897.38
2022-09-03T07:05:52.020Z,94921.91
2022-09-03T07:06:48.880Z,94814.88
2022-09-03T07:07:46.190Z,94881.06
2022-09-03T07:08:47.294Z,94922.69
2022-09-03T07:09:48.439Z,94889.63
2022-09-03T07:10:49.044Z,94927.44
2022-09-03T07:11:48.083Z,94919.50
2022-09-03T07:12:45.399Z,94925.94
2022-09-03T07:13:45.126Z,94921.44
2022-09-03T07:14:43.936Z,94899.81
2022-09-03T07:15:41.320Z,94900.81
2022-09-03T07:16:40.074Z,94898.16
2022-09-03T07:17:37.092Z,94872.25
2022-09-03T07:18:34.678Z,94942.47
2022-09-03T07:19:34.458Z,94917.66
2022-09-03T07:20:31.216Z,94943.81
2022-09-03T07:21:34.070Z,94916.31
2022-09-03T07:22:31.667Z,94879.38
2022-09-03T07:23:30.310Z,94956.31
2022-09-03T07:24:27.762Z,94901.91
2022-09-03T07:25:26.382Z,94936.59
2022-09-03T07:26:32.049Z,94930.16
2022-09-03T07:27:28.853Z,94922.78
2022-09-03T07:28:27.305Z,94934.47
2022-09-03T07:29:24.298Z,94943.03
2022-09-03T07:30:22.240Z,94950.50
2022-09-03T07:31:26.040Z,94885.16
2022-09-03T07:32:22.894Z,94951.84
2022-09-03T07:33:22.985Z,94786.13
2022-09-03T07:34:22.058Z,94928.13
2022-09-03T07:35:19.799Z,94800.59
2022-09-03T07:36:18.544Z,94897.09
2022-09-03T07:37:15.875Z,94945.69
2022-09-03T07:38:17.729Z,94956.44
2022-09-03T07:39:15.290Z,94917.47
2022-09-03T07:40:12.049Z,94934.81
2022-09-03T07:41:09.704Z,94852.31
2022-09-03T07:42:09.015Z,94946.22
2022-09-03T07:43:06.202Z,94941.19
2022-09-03T07:44:05.829Z,94927.53
2022-09-03T07:45:05.548Z,94949.41
2022-09-03T07:46:06.280Z,94884.88
2022-09-03T07:47:03.321Z,94963.31
2022-09-03T07:48:00.707Z,94910.50
2022-09-03T07:48:59.723Z,94940.16
2022-09-03T07:49:56.494Z,94906.81
2022-09-03T07:50:54.534Z,94898.25
2022-09-03T07:51:54.325Z,94961.50
2022-09-03T07:52:56.702Z,94952.66
2022-09-03T07:54:00.142Z,94919.88
2022-09-03T07:54:57.182Z,94939.88
2022-09-03T07:55:54.511Z,94963.84
2022-09-03T07:56:51.374Z,94949.34
2022-09-03T07:57:48.119Z,94942.22
2022-09-03T07:58:44.856Z,94914.72
2022-09-03T07:59:41.975Z,94962.72
2022-09-03T08:00:39.587Z,94947.19
2022-09-03T08:01:38.325Z,94940.81
2022-09-03T08:02:41.064Z,94956.81
2022-09-03T08:03:46.405Z,94954.78
2022-09-03T08:04:46.220Z,94883.75
2022-09-03T08:05:42.918Z,94919.50
2022-09-03T08:06:43.074Z,94908.31
2022-09-03T08:07:39.861Z,94943.06
2022-09-03T08:08:40.252Z,94945.97
2022-09-03T08:09:36.977Z,94969.41
2022-09-03T08:10:38.318Z,94951.19
2022-09-03T08:11:38.641Z,94863.13
2022-09-03T08:12:35.363Z,94958.19
2022-09-03T08:13:32.238Z,94860.28
2022-09-03T08:14:31.763Z,94867.72
2022-09-03T08:15:28.525Z,94971.88
2022-09-03T08:16:25.358Z,94971.94
2022-09-03T08:17:22.204Z,94918.47
2022-09-03T08:18:20.996Z,94948.78
2022-09-03T08:19:19.325Z,94961.19
2022-09-03T08:20:19.219Z,94960.25
2022-09-03T08:21:20.101Z,94918.47
2022-09-03T08:22:17.057Z,94928.41
2022-09-03T08:23:14.759Z,94954.22
2022-09-03T08:24:12.582Z,94923.97
2022-09-03T08:25:13.735Z,94962.09
2022-09-03T08:26:11.672Z,94973.41
2022-09-03T08:27:09.186Z,94891.47
2022-09-03T08:28:08.613Z,94885.88
2022-09-03T08:29:08.892Z,94940.78
2022-09-03T08:30:09.832Z,94947.00
2022-09-03T08:31:07.920Z,94903.50
2022-09-03T08:32:05.477Z,94887.03
2022-09-03T08:33:04.943Z,94960.09
2022-09-03T08:34:06.946Z,94837.94
2022-09-03T08:35:05.422Z,94924.78
2022-09-03T08:36:05.722Z,94889.09
2022-09-03T08:37:02.543Z,94954.69
2022-09-03T08:38:05.361Z,94954.31
2022-09-03T08:39:10.863Z,94953.41
2022-09-03T08:40:09.405Z,94944.63
2022-09-03T08:41:12.151Z,94933.19
2022-09-03T08:42:27.454Z,94940.75
2022-09-03T08:43:25.149Z,94926.28
2022-09-03T08:44:29.463Z,94938.03
2022-09-03T08:45:30.301Z,94879.91
2022-09-03T08:46:44.546Z,94867.69
2022-09-03T08:47:46.820Z,94905.88
2022-09-03T08:48:43.978Z,94912.00
2022-09-03T08:50:09.080Z,94905.56
2022-09-03T08:51:10.243Z,94957.75
2022-09-03T08:52:43.090Z,94936.56
2022-09-03T08:53:45.373Z,94937.91
2022-09-03T08:54:43.847Z,94933.31
2022-09-03T08:55:58.473Z,94931.63
2022-09-03T08:57:03.321Z,94938.28
2022-09-03T08:58:08.502Z,94939.28
2022-09-03T08:59:05.481Z,94949.31
2022-09-03T09:00:02.393Z,94910.53
2022-09-03T09:01:36.381Z,94933.03
2022-09-03T09:02:44.637Z,94948.59
2022-09-03T09:03:53.359Z,94939.38
2022-09-03T09:05:19.933Z,94939.34
2022-09-03T09:06:19.361Z,94939.19
2022-09-03T09:07:41.581Z,94932.75
2022-09-03T09:09:16.943Z,94941.50
2022-09-03T09:10:19.037Z,94946.84
2022-09-03T09:11:34.002Z,94939.34
2022-09-03T09:12:51.734Z,94933.25
2022-09-03T09:13:54.445Z,94941.66
2022-09-03T09:15:03.586Z,94855.13
2022-09-03T09:16:19.233Z,94934.81
2022-09-03T09:17:22.034Z,94937.19
2022-09-03T09:18:33.709Z,94943.00
2022-09-03T09:19:40.618Z,94895.16
2022-09-03T09:20:42.909Z,94940.88
2022-09-03T09:21:51.133Z,94889.06
2022-09-03T09:22:58.607Z,94961.91
2022-09-03T09:24:03.331Z,94915.41
2022-09-03T09:25:09.383Z,94954.28
2022-09-03T09:26:15.991Z,94892.22
2022-09-03T09:27:17.286Z,94918.66
2022-09-03T09:28:38.789Z,94940.22
2022-09-03T09:29:38.833Z,94961.00
2022-09-03T09:30:37.717Z,94934.47
2022-09-03T09:31:35.632Z,94937.97
2022-09-03T09:32:34.118Z,94959.19
2022-09-03T09:33:32.522Z,94953.59
2022-09-03T09:34:37.612Z,94931.25
2022-09-03T09:35:34.571Z,94945.53
2022-09-03T09:36:31.303Z,94917.84
2022-09-03T09:37:29.053Z,94899.75
2022-09-03T09:38:32.071Z,94965.91
2022-09-03T09:39:31.875Z,94897.81
2022-09-03T09:40:45.348Z,94947.25
2022-09-03T09:41:44.526Z,94954.09
2022-09-03T09:42:41.241Z,94968.22
2022-09-03T09:43:39.182Z,94906.94
2022-09-03T09:44:38.058Z,94899.84
2022-09-03T09:45:35.334Z,94535.25
2022-09-03T09:46:38.750Z,94971.63
2022-09-03T09:47:40.057Z,94843.75
2022-09-03T09:48:51.797Z,94949.59
2022-09-03T09:49:55.449Z,94955.50
2022-09-03T09:51:05.119Z,94908.25
2022-09-03T09:52:13.637Z,94916.72
2022-09-03T09:53:15.141Z,94955.16
2022-09-03T09:54:20.187Z,94960.88
2022-09-03T09:55:19.721Z,94873.34
2022-09-03T09:56:25.252Z,94943.81
2022-09-03T09:57:25.049Z,94924.94
2022-09-03T09:58:25.421Z,94963.84
2022-09-03T09:59:22.408Z,94912.72
2022-09-03T10:00:19.169Z,94950.78
2022-09-03T10:01:25.875Z,94928.13
2022-09-03T10:02:29.400Z,94909.41
2022-09-03T10:03:27.653Z,94931.69
2022-09-03T10:04:33.179Z,94957.75
2022-09-03T10:05:40.619Z,94958.09
2022-09-03T10:06:56.584Z,94959.19
2022-09-03T10:07:59.808Z,94947.63
2022-09-03T10:09:31.372Z,94943.63
2022-09-03T10:10:35.050Z,94930.19
2022-09-03T10:11:37.229Z,94957.25
2022-09-03T10:12:44.957Z,94851.50
2022-09-03T10:13:48.081Z,94850.09
2022-09-03T10:15:08.247Z,94847.56
2022-09-03T10:16:20.104Z,94899.44
2022-09-03T10:17:30.092Z,94913.28
2022-09-03T10:19:00.559Z,94867.06
2022-09-03T10:20:30.486Z,94934.78
2022-09-03T10:21:47.218Z,94949.88
2022-09-03T10:22:57.642Z,94953.34
2022-09-03T10:24:20.990Z,94949.44
2022-09-03T10:25:20.942Z,94982.53
2022-09-03T10:26:32.265Z,94943.69
2022-09-03T10:27:31.983Z,94949.88
2022-09-03T10:28:31.457Z,94900.66
2022-09-03T10:29:30.034Z,94841.00
2022-09-03T10:30:26.849Z,94946.13
2022-09-03T10:31:36.735Z,94944.50
2022-09-03T10:32:49.389Z,94943.25
2022-09-03T10:34:00.794Z,94953.16
2022-09-03T10:35:05.508Z,94822.34
2022-09-03T10:36:13.331Z,94946.41
2022-09-03T10:37:26.049Z,94941.50
2022-09-03T10:38:38.035Z,94949.19
2022-09-03T10:39:56.277Z,94934.72
2022-09-03T10:41:13.368Z,94925.00
2022-09-03T10:42:28.785Z,94943.09
2022-09-03T10:43:59.592Z,94964.63
2022-09-03T10:45:28.957Z,94940.69
2022-09-03T10:46:44.671Z,94929.91
2022-09-03T10:47:53.501Z,94956.53
2022-09-03T10:49:17.041Z,94900.88
2022-09-03T10:50:33.024Z,94947.00
2022-09-03T10:51:36.777Z,94969.50
2022-09-03T10:52:54.583Z,94935.38
2022-09-03T10:53:57.268Z,94948.69
2022-09-03T10:55:26.206Z,94945.72
2022-09-03T10:56:44.192Z,94947.63
2022-09-03T10:57:49.750Z,94950.56
2022-09-03T10:58:55.432Z,94942.38
2022-09-03T11:00:09.415Z,94946.53
2022-09-03T11:01:23.985Z,94939.00
2022-09-03T11:02:59.340Z,94947.00
2022-09-03T11:04:25.138Z,94942.28
2022-09-03T11:05:39.754Z,94944.47
2022-09-03T11:06:51.106Z,94931.34
2022-09-03T11:08:17.270Z,94942.88
2022-09-03T11:09:28.982Z,94952.06
2022-09-03T11:10:30.940Z,94914.50
2022-09-03T11:11:42.330Z,94962.50
2022-09-03T11:12:53.137Z,94945.34
2022-09-03T11:14:08.893Z,94963.59
2022-09-03T11:15:11.583Z,94940.47
2022-09-03T11:16:12.950Z,94954.19
2022-09-03T11:17:19.205Z,94957.81
2022-09-03T11:18:33.842Z,94919.38
2022-09-03T11:19:47.084Z,94952.78
2022-09-03T11:20:47.745Z,94948.06
2022-09-03T11:21:48.514Z,94881.78
2022-09-03T11:22:48.325Z,94924.97
2022-09-03T11:23:55.009Z,94903.47
2022-09-03T11:24:58.870Z,94863.66
2022-09-03T11:26:03.455Z,94894.03
2022-09-03T11:27:20.750Z,94941.75
2022-09-03T11:28:31.627Z,94954.06
2022-09-03T11:29:33.955Z,94949.13
2022-09-03T11:30:51.676Z,94931.78
2022-09-03T11:32:07.833Z,94936.22
2022-09-03T11:33:11.851Z,94946.31
2022-09-03T11:34:17.822Z,94922.78
2022-09-03T11:35:31.532Z,94916.06
2022-09-03T11:36:34.951Z,94834.44
2022-09-03T11:37:31.790Z,94932.84
2022-09-03T11:38:32.100Z,94919.84
2022-09-03T11:39:31.768Z,94938.22
2022-09-03T11:40:37.933Z,94928.25
2022-09-03T11:41:38.178Z,94935.00
2022-09-03T11:42:42.993Z,94938.22
2022-09-03T11:43:41.073Z,94950.78
2022-09-03T11:44:51.604Z,94960.00
2022-09-03T11:45:48.762Z,94909.81
2022-09-03T11:47:00.231Z,94912.59
2022-09-03T11:47:57.047Z,94898.19
2022-09-03T11:48:56.409Z,94945.66
2022-09-03T11:50:07.766Z,94946.28
2022-09-03T11:51:16.723Z,94942.00
2022-09-03T11:52:13.497Z,94920.00
2022-09-03T11:53:25.377Z,94917.34
2022-09-03T11:54:23.829Z,94931.91
2022-09-03T11:55:38.214Z,94952.63
2022-09-03T11:56:45.530Z,94922.66
2022-09-03T11:57:43.754Z,94846.84
2022-09-03T11:58:42.998Z,94929.72
2022-09-03T11:59:44.372Z,94953.22
2022-09-03T12:00:44.568Z,94944.81
2022-09-03T12:02:02.997Z,94806.00
2022-09-03T12:03:03.594Z,94908.53
2022-09-03T12:04:05.539Z,94878.56
2022-09-03T12:05:22.838Z,94943.38
2022-09-03T12:06:49.503Z,94913.59
2022-09-03T12:08:13.849Z,94928.44
2022-09-03T12:09:35.810Z,94941.72
2022-09-03T12:10:56.555Z,94925.34
2022-09-03T12:12:15.337Z,94932.66
2022-09-03T12:13:30.478Z,94926.50
2022-09-03T12:14:57.277Z,94923.38
2022-09-03T12:16:15.676Z,94927.59
2022-09-03T12:17:33.894Z,94919.28
2022-09-03T12:18:35.245Z,94920.66
2022-09-03T12:19:45.857Z,94925.53
2022-09-03T12:20:44.196Z,94925.53
2022-09-03T12:21:41.204Z,94923.84
2022-09-03T12:22:38.727Z,94853.22
2022-09-03T12:23:58.515Z,94934.53
2022-09-03T12:24:56.333Z,94930.84
2022-09-03T12:25:53.276Z,94933.00
2022-09-03T12:26:50.146Z,94887.78
2022-09-03T12:27:49.838Z,94917.94
2022-09-03T12:28:54.871Z,94891.13